createdAt,value
2023-04-14T04:37:50.155Z,72.29
2023-04-14T04:40:52.876Z,72.29
2023-04-14T04:43:56.175Z,73.52
2023-04-14T04:46:58.860Z,74.21
2023-04-14T04:50:01.507Z,74.26
2023-04-14T04:53:04.131Z,73.78
2023-04-14T04:56:09.056Z,73.95
2023-04-14T04:59:11.796Z,74.00
2023-04-14T05:02:14.363Z,74.10
2023-04-14T05:05:16.966Z,73.81
2023-04-14T05:08:19.510Z,74.03
2023-04-14T05:11:23.301Z,73.92
2023-04-14T05:14:27.538Z,74.21
2023-04-14T05:17:30.468Z,73.78
2023-04-14T05:20:34.899Z,73.43
2023-04-14T05:23:38.012Z,73.17
2023-04-14T05:29:46.032Z,73.82
2023-04-14T05:32:48.671Z,72.89
2023-04-14T05:35:51.389Z,73.14
2023-04-14T05:38:54.261Z,74.01
2023-04-14T05:41:56.951Z,74.13
2023-04-14T05:44:59.661Z,74.06
2023-04-14T05:48:02.440Z,74.07
2023-04-14T05:51:05.026Z,73.93
2023-04-14T05:54:07.631Z,73.46
2023-04-14T05:57:10.341Z,73.33
2023-04-14T06:00:13.436Z,72.83
2023-04-14T06:03:17.111Z,72.59
2023-04-14T06:06:22.563Z,72.52
2023-04-14T06:09:24.993Z,72.47
2023-04-14T06:12:27.630Z,72.14
2023-04-14T06:15:31.175Z,71.86
2023-04-14T06:18:33.785Z,72.11
2023-04-14T06:21:36.413Z,71.27
2023-04-14T06:24:38.952Z,71.67
2023-04-14T06:27:41.592Z,70.91
2023-04-14T06:30:44.129Z,70.77
2023-04-14T06:33:46.726Z,71.28
2023-04-14T06:36:49.286Z,71.39
2023-04-14T06:39:51.806Z,70.95
2023-04-14T06:42:54.351Z,70.72
2023-04-14T06:45:56.997Z,71.00
2023-04-14T06:48:59.826Z,70.84
2023-04-14T06:52:02.764Z,71.17
2023-04-14T06:55:05.788Z,70.82
2023-04-14T06:58:08.435Z,70.82
2023-04-14T07:01:11.157Z,71.37
2023-04-14T07:04:15.648Z,71.20
2023-04-14T07:07:18.309Z,71.39
2023-04-14T07:10:25.309Z,71.46
2023-04-14T07:13:28.334Z,71.28
2023-04-14T07:16:30.975Z,71.32
2023-04-14T07:19:33.647Z,70.74
2023-04-14T07:22:36.248Z,71.45
2023-04-14T07:25:38.867Z,71.21
2023-04-14T07:28:41.745Z,71.41
2023-04-14T07:31:44.299Z,71.95
2023-04-14T07:34:47.222Z,71.70
2023-04-14T07:37:49.946Z,71.85
2023-04-14T07:40:52.665Z,72.17
2023-04-14T07:43:55.871Z,73.82
2023-04-14T07:46:58.362Z,73.38
2023-04-14T07:50:00.991Z,71.92
2023-04-14T07:53:03.564Z,72.47
2023-04-14T07:56:06.303Z,72.33
2023-04-14T07:59:08.850Z,71.43
2023-04-14T08:02:11.660Z,71.20
2023-04-14T08:05:14.457Z,70.84
2023-04-14T08:08:17.123Z,70.37
2023-04-14T08:11:19.630Z,70.51
2023-04-14T08:14:22.248Z,69.64
2023-04-14T08:17:24.926Z,70.04
2023-04-14T08:20:27.493Z,69.62
2023-04-14T08:23:30.053Z,69.93
2023-04-14T08:26:32.576Z,69.55
2023-04-14T08:29:35.207Z,69.16
2023-04-14T08:32:37.813Z,69.83
2023-04-14T08:35:42.158Z,70.25
2023-04-14T08:38:46.224Z,70.17
2023-04-14T08:41:48.783Z,70.30
2023-04-14T08:44:53.085Z,70.54
2023-04-14T08:47:55.853Z,71.38
2023-04-14T08:51:49.877Z,71.34
2023-04-14T08:54:55.065Z,72.24
2023-04-14T08:57:58.763Z,72.88
2023-04-14T09:01:03.305Z,73.15
2023-04-14T09:04:06.856Z,74.59
2023-04-14T09:07:10.237Z,76.21
2023-04-14T09:10:13.850Z,77.33
2023-04-14T09:13:17.386Z,79.63
2023-04-14T09:16:19.994Z,79.50
2023-04-14T09:19:25.685Z,81.66
2023-04-14T09:22:28.547Z,81.34
2023-04-14T09:25:31.223Z,81.42
2023-04-14T09:28:33.820Z,84.74
2023-04-14T09:31:36.771Z,84.74
2023-04-14T09:34:56.523Z,85.80
2023-04-14T09:38:00.866Z,86.45
2023-04-14T09:41:04.538Z,87.36
2023-04-14T09:44:08.153Z,89.13
2023-04-14T09:47:10.715Z,89.72
2023-04-14T09:50:13.208Z,92.29
2023-04-14T09:53:15.759Z,91.85
2023-04-14T09:56:18.269Z,91.69
2023-04-14T09:59:36.950Z,94.34
2023-04-14T10:02:56.081Z,94.16
2023-04-14T10:05:58.995Z,95.11
2023-04-14T10:09:02.442Z,95.96
2023-04-14T10:12:14.888Z,96.38
2023-04-14T10:15:17.644Z,96.06
2023-04-14T10:18:20.567Z,97.24
2023-04-14T10:21:23.244Z,98.80
2023-04-14T10:24:25.911Z,99.37
2023-04-14T10:27:30.358Z,100.00
2023-04-14T10:30:33.598Z,100.00
2023-04-14T10:33:39.312Z,100.00
2023-04-14T10:36:42.839Z,100.00
2023-04-14T10:39:58.378Z,100.00
2023-04-14T10:43:01.286Z,100.00
2023-04-14T10:46:05.075Z,100.00
2023-04-14T10:49:08.338Z,100.00
2023-04-14T10:52:21.381Z,100.00
2023-04-14T10:55:24.909Z,100.00
2023-04-14T10:58:29.579Z,100.00
2023-04-14T11:01:32.958Z,100.00
2023-04-14T11:04:39.300Z,100.00
2023-04-14T11:07:45.495Z,100.00
2023-04-14T11:10:49.352Z,100.00
2023-04-14T11:14:10.762Z,100.00
2023-04-14T11:17:19.141Z,100.00
2023-04-14T11:20:22.699Z,100.00
2023-04-14T11:23:27.322Z,100.00
2023-04-14T11:26:30.189Z,100.00
2023-04-14T11:29:33.196Z,100.00
2023-04-14T11:32:52.435Z,100.00
2023-04-14T11:35:55.030Z,100.00
2023-04-14T11:38:57.567Z,100.00
2023-04-14T11:42:00.732Z,100.00
2023-04-14T11:45:04.260Z,100.00
2023-04-14T11:48:07.391Z,100.00
2023-04-14T11:51:10.024Z,100.00
2023-04-14T11:54:13.259Z,100.00
2023-04-14T11:57:17.696Z,100.00
2023-04-14T12:00:20.312Z,100.00
2023-04-14T12:03:24.076Z,100.00
2023-04-14T12:06:29.798Z,100.00
2023-04-14T12:09:32.378Z,100.00
2023-04-14T12:12:34.993Z,100.00
2023-04-14T12:15:41.636Z,100.00
2023-04-14T12:18:44.599Z,100.00
2023-04-14T12:21:53.205Z,100.00
2023-04-14T12:24:56.191Z,100.00
2023-04-14T12:27:58.886Z,100.00
2023-04-14T12:31:02.731Z,100.00
2023-04-14T12:34:06.638Z,100.00
2023-04-14T12:37:10.125Z,100.00
2023-04-14T12:40:12.825Z,100.00
2023-04-14T12:43:16.894Z,100.00
2023-04-14T12:46:28.241Z,100.00
2023-04-14T12:49:34.305Z,100.00
2023-04-14T12:52:38.396Z,100.00
2023-04-14T12:55:40.907Z,100.00
2023-04-14T12:58:46.922Z,100.00
2023-04-14T13:01:49.791Z,100.00
2023-04-14T13:04:52.408Z,100.00
2023-04-14T13:07:54.993Z,100.00
2023-04-14T13:10:57.658Z,100.00
2023-04-14T13:14:00.232Z,100.00
2023-04-14T13:17:03.219Z,100.00
2023-04-14T13:20:06.280Z,100.00
2023-04-14T13:23:08.854Z,100.00
2023-04-14T13:26:11.899Z,100.00
2023-04-14T13:29:14.529Z,100.00
2023-04-14T13:32:17.392Z,100.00
2023-04-14T13:35:20.071Z,100.00
2023-04-14T13:38:22.865Z,100.00
2023-04-14T13:41:26.401Z,100.00
2023-04-14T13:44:29.156Z,100.00
2023-04-14T13:47:31.883Z,100.00
2023-04-14T13:50:34.446Z,100.00
2023-04-14T13:53:37.242Z,100.00
2023-04-14T13:56:39.809Z,100.00
2023-04-14T13:59:42.458Z,100.00
2023-04-14T14:02:45.177Z,100.00
2023-04-14T14:05:47.740Z,100.00
2023-04-14T14:09:06.262Z,100.00
2023-04-14T14:12:11.539Z,100.00
2023-04-14T14:15:14.267Z,100.00
2023-04-14T14:18:17.835Z,100.00
2023-04-14T14:21:20.471Z,100.00
2023-04-14T14:24:23.052Z,100.00
2023-04-14T14:27:25.840Z,100.00
2023-04-14T14:30:28.446Z,100.00
2023-04-14T14:33:31.147Z,100.00
2023-04-14T14:36:33.682Z,100.00
2023-04-14T14:39:36.439Z,100.00
2023-04-14T14:42:39.002Z,100.00
2023-04-14T14:45:41.651Z,100.00
2023-04-14T14:48:44.319Z,100.00
2023-04-14T14:51:46.864Z,100.00
2023-04-14T14:54:49.430Z,100.00
2023-04-14T14:57:52.029Z,100.00
2023-04-14T15:00:54.595Z,100.00
2023-04-14T15:03:57.349Z,100.00
2023-04-14T15:06:59.934Z,100.00
2023-04-14T15:10:04.703Z,100.00
2023-04-14T15:13:07.491Z,100.00
2023-04-14T15:16:10.384Z,100.00
2023-04-14T15:19:12.956Z,100.00
2023-04-14T15:22:15.829Z,100.00
2023-04-14T15:25:18.359Z,100.00
